createdAt,value
2018-09-04T00:01:33.384Z,20.52
2018-09-04T00:04:02.226Z,20.51
2018-09-04T00:06:31.103Z,20.47
2018-09-04T00:08:59.980Z,20.46
2018-09-04T00:11:28.871Z,20.61
2018-09-04T00:13:57.716Z,20.50
2018-09-04T00:16:26.573Z,20.37
2018-09-04T00:18:55.442Z,20.35
2018-09-04T00:21:24.293Z,20.34
2018-09-04T00:23:53.161Z,20.37
2018-09-04T00:26:22.094Z,20.37
2018-09-04T00:28:50.937Z,20.36
2018-09-04T00:31:19.794Z,20.37
2018-09-04T00:33:48.673Z,20.37
2018-09-04T00:36:17.562Z,20.39
2018-09-04T00:38:46.406Z,20.38
2018-09-04T00:41:15.243Z,20.39
2018-09-04T00:43:44.145Z,20.39
2018-09-04T00:46:13.002Z,20.37
2018-09-04T00:48:41.831Z,20.37
2018-09-04T00:51:10.687Z,20.35
2018-09-04T00:53:39.517Z,20.37
2018-09-04T00:56:08.395Z,20.36
2018-09-04T00:58:37.268Z,20.56
2018-09-04T01:01:06.111Z,20.43
2018-09-04T01:03:34.966Z,20.41
2018-09-04T01:06:03.845Z,20.39
2018-09-04T01:08:32.715Z,20.36
2018-09-04T01:11:01.627Z,20.33
2018-09-04T01:13:30.480Z,20.30
2018-09-04T01:15:59.339Z,20.26
2018-09-04T01:18:28.230Z,20.22
2018-09-04T01:20:57.076Z,20.21
2018-09-04T01:23:25.982Z,20.21
2018-09-04T01:25:54.814Z,20.21
2018-09-04T01:28:23.686Z,20.21
2018-09-04T01:30:52.536Z,20.20
2018-09-04T01:33:21.399Z,20.51
2018-09-04T01:35:50.286Z,20.30
2018-09-04T01:38:19.145Z,20.24
2018-09-04T01:40:48.039Z,20.55
2018-09-04T01:43:16.902Z,20.68
2018-09-04T01:45:45.769Z,20.42
2018-09-04T01:48:15.172Z,20.36
2018-09-04T01:50:44.593Z,20.30
2018-09-04T01:53:13.701Z,20.27
2018-09-04T01:55:42.565Z,20.27
2018-09-04T01:58:11.423Z,20.23
2018-09-04T02:00:40.268Z,20.18
2018-09-04T02:03:09.141Z,20.16
2018-09-04T02:05:37.994Z,20.12
2018-09-04T02:08:06.897Z,20.08
2018-09-04T02:10:35.760Z,20.09
2018-09-04T02:13:04.661Z,20.08
2018-09-04T02:15:33.538Z,20.10
2018-09-04T02:18:02.375Z,20.10
2018-09-04T02:20:31.247Z,20.07
2018-09-04T02:23:00.108Z,20.06
2018-09-04T02:25:29.114Z,20.03
2018-09-04T02:27:58.006Z,20.25
2018-09-04T02:30:26.877Z,20.06
2018-09-04T02:32:55.794Z,20.06
2018-09-04T02:35:24.574Z,20.35
2018-09-04T02:37:53.412Z,20.10
2018-09-04T02:40:22.267Z,20.04
2018-09-04T02:42:51.128Z,20.01
2018-09-04T02:45:19.956Z,19.99
2018-09-04T02:47:48.877Z,19.97
2018-09-04T02:50:17.727Z,19.98
2018-09-04T02:52:46.594Z,19.94
2018-09-04T02:55:15.425Z,19.87
2018-09-04T02:57:44.376Z,19.87
2018-09-04T03:00:13.238Z,19.90
2018-09-04T03:02:42.088Z,20.24
2018-09-04T03:05:10.969Z,20.05
2018-09-04T03:07:39.840Z,19.97
2018-09-04T03:10:08.826Z,19.91
2018-09-04T03:12:37.766Z,19.83
2018-09-04T03:15:06.670Z,20.19
2018-09-04T03:17:35.513Z,20.04
2018-09-04T03:20:04.498Z,19.94
2018-09-04T03:22:33.337Z,20.14
2018-09-04T03:25:02.219Z,20.18
2018-09-04T03:27:31.083Z,20.27
2018-09-04T03:29:59.932Z,20.00
2018-09-04T03:32:28.775Z,19.94
2018-09-04T03:34:57.654Z,19.92
2018-09-04T03:37:26.517Z,19.87
2018-09-04T03:39:55.333Z,19.83
2018-09-04T03:42:24.296Z,19.84
2018-09-04T03:44:53.056Z,19.80
2018-09-04T03:47:21.901Z,19.74
2018-09-04T03:49:50.789Z,19.73
2018-09-04T03:52:19.678Z,19.69
2018-09-04T03:54:48.480Z,20.00
2018-09-04T03:57:17.354Z,19.76
2018-09-04T03:59:46.200Z,19.71
2018-09-04T04:02:15.084Z,19.67
2018-09-04T04:04:43.931Z,19.66
2018-09-04T04:07:12.816Z,19.67
2018-09-04T04:09:41.658Z,19.66
2018-09-04T04:12:10.639Z,19.62
2018-09-04T04:14:39.340Z,19.63
2018-09-04T04:17:08.445Z,19.60
2018-09-04T04:19:37.272Z,19.57
2018-09-04T04:22:06.262Z,19.54
2018-09-04T04:24:35.187Z,19.57
2018-09-04T04:27:04.034Z,19.58
2018-09-04T04:29:33.095Z,19.85
2018-09-04T04:32:01.923Z,19.63
2018-09-04T04:34:30.785Z,19.64
2018-09-04T04:36:59.622Z,19.63
2018-09-04T04:39:28.497Z,19.59
2018-09-04T04:41:57.559Z,19.55
2018-09-04T04:44:26.634Z,19.53
2018-09-04T04:46:55.467Z,19.50
2018-09-04T04:49:24.494Z,19.50
2018-09-04T04:51:53.281Z,19.46
2018-09-04T04:54:22.152Z,19.43
2018-09-04T04:56:51.033Z,19.42
2018-09-04T04:59:19.915Z,19.43
2018-09-04T05:01:48.800Z,19.43
2018-09-04T05:04:17.674Z,19.39
2018-09-04T05:06:46.506Z,19.40
2018-09-04T05:09:15.408Z,19.41
2018-09-04T05:11:44.269Z,19.42
2018-09-04T05:14:13.188Z,19.40
2018-09-04T05:16:42.045Z,19.38
2018-09-04T05:19:10.900Z,19.41
2018-09-04T05:21:39.785Z,19.44
2018-09-04T05:24:08.660Z,19.47
2018-09-04T05:26:37.497Z,19.47
2018-09-04T05:29:06.371Z,19.49
2018-09-04T05:31:39.884Z,19.52
2018-09-04T05:34:08.806Z,19.54
2018-09-04T05:36:37.694Z,19.58
2018-09-04T05:39:08.833Z,19.62
2018-09-04T05:41:37.685Z,19.68
2018-09-04T05:44:06.547Z,20.06
2018-09-04T05:46:38.116Z,19.90
2018-09-04T05:49:07.464Z,19.89
2018-09-04T05:51:36.359Z,19.88
2018-09-04T05:54:05.208Z,19.92
2018-09-04T05:56:34.062Z,19.94
2018-09-04T05:59:02.893Z,19.98
2018-09-04T06:01:32.017Z,20.02
2018-09-04T06:04:00.883Z,20.09
2018-09-04T06:06:29.734Z,20.17
2018-09-04T06:08:58.573Z,20.23
2018-09-04T06:11:27.425Z,20.34
2018-09-04T06:13:56.274Z,20.46
2018-09-04T06:16:25.129Z,20.60
2018-09-04T06:18:53.987Z,21.00
2018-09-04T06:21:22.826Z,20.90
2018-09-04T06:23:51.671Z,20.95
2018-09-04T06:26:20.529Z,20.99
2018-09-04T06:28:49.372Z,21.06
2018-09-04T06:31:18.216Z,21.11
2018-09-04T06:33:47.123Z,21.13
2018-09-04T06:36:15.975Z,21.15
2018-09-04T06:38:44.837Z,21.18
2018-09-04T06:41:13.683Z,21.19
2018-09-04T06:43:42.943Z,21.15
2018-09-04T06:46:11.795Z,21.14
2018-09-04T06:48:40.795Z,21.14
2018-09-04T06:51:09.701Z,21.16
2018-09-04T06:53:38.566Z,21.18
2018-09-04T06:56:07.483Z,21.20
2018-09-04T06:58:36.297Z,21.21
2018-09-04T07:01:05.264Z,21.22
2018-09-04T07:03:34.144Z,21.22
2018-09-04T07:06:03.071Z,21.21
2018-09-04T07:08:32.035Z,21.21
2018-09-04T07:11:00.905Z,21.22
2018-09-04T07:13:29.771Z,21.29
2018-09-04T07:15:58.622Z,21.35
2018-09-04T07:18:28.310Z,21.40
2018-09-04T07:20:57.183Z,21.52
2018-09-04T07:23:26.321Z,21.77
2018-09-04T07:25:55.165Z,22.04
2018-09-04T07:28:24.090Z,22.28
2018-09-04T07:30:52.950Z,22.41
2018-09-04T07:33:21.839Z,22.46
2018-09-04T07:35:50.739Z,22.55
2018-09-04T07:38:19.802Z,22.70
2018-09-04T07:40:48.552Z,22.99
2018-09-04T07:43:17.421Z,23.12
2018-09-04T07:45:46.276Z,23.41
2018-09-04T07:48:15.171Z,23.62
2018-09-04T07:50:44.085Z,23.72
2018-09-04T07:53:12.985Z,24.09
2018-09-04T07:55:41.846Z,24.89
2018-09-04T07:58:10.724Z,25.25
2018-09-04T08:00:39.613Z,25.25
2018-09-04T08:03:08.571Z,25.37
2018-09-04T08:05:37.716Z,25.51
2018-09-04T08:08:06.644Z,25.79
2018-09-04T08:10:36.224Z,26.75
2018-09-04T08:13:06.613Z,27.78
2018-09-04T08:15:36.036Z,27.74
2018-09-04T08:18:05.072Z,27.39
2018-09-04T08:20:34.143Z,27.10
2018-09-04T08:23:02.830Z,26.97
2018-09-04T08:25:31.833Z,27.08
2018-09-04T08:28:00.713Z,27.15
2018-09-04T08:30:29.584Z,27.16
2018-09-04T08:32:58.589Z,27.28
2018-09-04T08:35:27.307Z,27.90
2018-09-04T08:37:59.343Z,28.78
2018-09-04T08:40:29.629Z,29.78
2018-09-04T08:42:58.545Z,31.10
2018-09-04T08:45:27.432Z,32.23
2018-09-04T08:47:59.190Z,32.94
2018-09-04T08:50:28.657Z,33.56
2018-09-04T08:52:57.512Z,34.20
2018-09-04T08:55:26.494Z,34.75
2018-09-04T08:57:55.270Z,34.74
2018-09-04T09:00:24.159Z,34.79
2018-09-04T09:02:53.017Z,35.14
2018-09-04T09:05:21.888Z,35.57
2018-09-04T09:07:50.733Z,36.50
2018-09-04T09:10:19.615Z,36.63
2018-09-04T09:12:48.517Z,36.49
2018-09-04T09:15:17.346Z,36.44
2018-09-04T09:17:46.199Z,36.72
2018-09-04T09:20:15.089Z,36.64
2018-09-04T09:22:44.294Z,36.60
2018-09-04T09:25:13.174Z,36.71
2018-09-04T09:27:42.144Z,36.45
2018-09-04T09:30:11.473Z,37.59
2018-09-04T09:32:40.474Z,36.83
2018-09-04T09:35:09.508Z,36.91
2018-09-04T09:37:38.356Z,37.07
2018-09-04T09:40:07.238Z,37.11
2018-09-04T09:42:36.254Z,37.27
2018-09-04T09:45:05.501Z,37.97
2018-09-04T09:47:34.362Z,37.09
2018-09-04T09:50:03.224Z,37.01
2018-09-04T09:52:32.158Z,36.91
2018-09-04T09:55:00.944Z,36.69
2018-09-04T09:57:29.807Z,37.11
2018-09-04T09:59:58.725Z,36.82
2018-09-04T10:02:45.233Z,36.59
2018-09-04T10:05:14.075Z,35.28
2018-09-04T10:07:43.019Z,34.25
2018-09-04T10:10:11.879Z,34.03
2018-09-04T10:12:40.661Z,34.98
2018-09-04T10:15:09.517Z,35.51
2018-09-04T10:17:38.383Z,35.15
2018-09-04T10:20:07.219Z,35.13
2018-09-04T10:22:36.088Z,33.53
2018-09-04T10:25:05.461Z,33.09
2018-09-04T10:27:34.595Z,33.22
2018-09-04T10:30:03.638Z,33.66
2018-09-04T10:32:32.560Z,34.07
2018-09-04T10:35:01.543Z,32.91
2018-09-04T10:37:30.495Z,32.12
2018-09-04T10:40:17.444Z,32.77
2018-09-04T10:42:46.326Z,33.48
2018-09-04T10:45:32.846Z,34.16
2018-09-04T10:48:01.708Z,35.12
2018-09-04T10:50:30.568Z,35.04
2018-09-04T10:52:59.422Z,34.71
2018-09-04T10:55:28.312Z,33.67
2018-09-04T10:57:57.258Z,32.83
2018-09-04T11:00:26.102Z,32.44
2018-09-04T11:02:54.962Z,32.00
2018-09-04T11:05:23.831Z,32.67
2018-09-04T11:07:52.709Z,32.23
2018-09-04T11:10:21.562Z,32.13
2018-09-04T11:12:50.479Z,31.59
2018-09-04T11:15:19.357Z,31.38
2018-09-04T11:17:48.204Z,31.14
2018-09-04T11:20:17.069Z,30.95
2018-09-04T11:22:45.937Z,31.27
2018-09-04T11:25:14.894Z,31.14
2018-09-04T11:27:43.812Z,30.88
2018-09-04T11:30:16.199Z,30.80
2018-09-04T11:32:45.150Z,30.48
2018-09-04T11:35:14.112Z,30.42
2018-09-04T11:37:43.234Z,30.35
2018-09-04T11:40:12.114Z,30.38
2018-09-04T11:42:41.201Z,30.58
2018-09-04T11:45:10.551Z,30.71
2018-09-04T11:47:41.579Z,30.84
2018-09-04T11:50:10.865Z,30.56
2018-09-04T11:52:42.534Z,30.33
2018-09-04T11:55:11.909Z,30.19
2018-09-04T11:57:41.400Z,30.09
2018-09-04T12:00:15.919Z,30.04
2018-09-04T12:02:45.303Z,30.06
2018-09-04T12:05:14.287Z,29.98
2018-09-04T12:07:43.145Z,29.74
2018-09-04T12:10:12.009Z,29.68
2018-09-04T12:12:41.159Z,29.59
2018-09-04T12:15:09.841Z,29.40
2018-09-04T12:17:38.732Z,29.36
2018-09-04T12:20:34.984Z,29.21
2018-09-04T12:23:03.809Z,28.99
2018-09-04T12:25:32.664Z,28.64
2018-09-04T12:28:02.733Z,28.58
2018-09-04T12:30:31.685Z,28.46
2018-09-04T12:33:01.287Z,28.33
2018-09-04T12:35:30.611Z,28.14
2018-09-04T12:37:59.709Z,27.91
2018-09-04T12:40:28.569Z,27.67
2018-09-04T12:42:57.419Z,27.36
2018-09-04T12:45:26.250Z,27.07
2018-09-04T12:47:55.169Z,26.86
2018-09-04T12:50:23.998Z,26.80
2018-09-04T12:52:52.819Z,26.76
2018-09-04T12:55:21.724Z,26.67
2018-09-04T12:57:50.615Z,26.68
2018-09-04T13:00:19.543Z,26.76
2018-09-04T13:02:48.409Z,26.82
2018-09-04T13:05:17.629Z,26.94
2018-09-04T13:07:46.498Z,27.09
2018-09-04T13:10:15.583Z,27.27
2018-09-04T13:12:44.471Z,27.42
2018-09-04T13:15:13.926Z,27.55
2018-09-04T13:17:42.767Z,27.50
2018-09-04T13:20:11.639Z,27.48
2018-09-04T13:22:40.473Z,27.34
2018-09-04T13:25:09.330Z,26.98
2018-09-04T13:27:38.170Z,26.63
2018-09-04T13:30:07.040Z,26.38
2018-09-04T13:32:35.952Z,26.13
2018-09-04T13:35:04.928Z,25.97
2018-09-04T13:37:33.796Z,25.86
2018-09-04T13:40:03.457Z,25.81
2018-09-04T13:42:33.445Z,25.70
2018-09-04T13:45:02.358Z,25.69
2018-09-04T13:47:32.776Z,25.60
2018-09-04T13:50:01.614Z,25.53
2018-09-04T13:52:31.481Z,25.45
2018-09-04T13:55:00.304Z,25.37
2018-09-04T13:57:29.685Z,25.32
2018-09-04T13:59:58.596Z,25.61
2018-09-04T14:02:27.461Z,25.38
2018-09-04T14:04:56.307Z,25.23
2018-09-04T14:07:25.193Z,25.13
2018-09-04T14:09:54.072Z,25.11
2018-09-04T14:12:22.891Z,24.97
2018-09-04T14:14:51.755Z,24.92
2018-09-04T14:17:21.122Z,24.90
2018-09-04T14:19:49.950Z,25.02
2018-09-04T14:22:18.867Z,25.00
2018-09-04T14:24:47.664Z,24.97
2018-09-04T14:27:16.519Z,24.96
2018-09-04T14:32:14.242Z,25.05
2018-09-04T14:34:43.072Z,25.08
2018-09-04T14:37:12.081Z,25.04
2018-09-04T14:39:40.800Z,25.11
2018-09-04T14:42:09.748Z,25.07
2018-09-04T14:44:38.559Z,24.93
2018-09-04T14:47:07.414Z,24.91
2018-09-04T14:49:36.290Z,24.96
2018-09-04T14:52:05.223Z,25.31
2018-09-04T14:54:34.106Z,25.25
2018-09-04T14:57:03.039Z,25.37
2018-09-04T14:59:31.846Z,25.44
2018-09-04T15:02:00.726Z,25.51
2018-09-04T15:04:29.575Z,25.55
2018-09-04T15:06:58.414Z,25.61
2018-09-04T15:09:27.254Z,25.63
2018-09-04T15:11:56.181Z,25.75
2018-09-04T15:14:25.028Z,25.79
2018-09-04T15:16:55.458Z,26.08
2018-09-04T15:19:24.372Z,26.04
2018-09-04T15:21:53.310Z,26.12
2018-09-04T15:24:22.159Z,26.09
2018-09-04T15:26:51.089Z,26.19
2018-09-04T15:29:19.964Z,26.28
2018-09-04T15:31:48.821Z,26.28
2018-09-04T15:34:17.669Z,26.30
2018-09-04T15:36:46.521Z,26.26
2018-09-04T15:39:15.370Z,26.29
2018-09-04T15:41:44.206Z,26.26
2018-09-04T15:44:13.096Z,26.28
2018-09-04T15:46:41.944Z,26.31
2018-09-04T15:49:28.358Z,26.38
2018-09-04T15:51:57.155Z,26.36
2018-09-04T15:54:26.022Z,26.34
2018-09-04T15:56:54.917Z,26.26
2018-09-04T15:59:23.672Z,26.12
2018-09-04T16:01:52.537Z,25.99
2018-09-04T16:04:21.365Z,25.87
2018-09-04T16:06:50.236Z,25.80
2018-09-04T16:09:19.041Z,25.75
2018-09-04T16:11:47.910Z,25.66
2018-09-04T16:14:16.796Z,25.73
2018-09-04T16:16:45.673Z,25.53
2018-09-04T16:19:14.531Z,25.45
2018-09-04T16:21:43.437Z,25.29
2018-09-04T16:24:12.271Z,25.24
2018-09-04T16:26:41.224Z,25.15
2018-09-04T16:29:10.061Z,25.07
2018-09-04T16:31:39.046Z,25.03
2018-09-04T16:34:07.934Z,24.93
2018-09-04T16:36:36.790Z,24.82
2018-09-04T16:39:06.071Z,24.76
2018-09-04T16:41:34.956Z,24.68
2018-09-04T16:44:04.264Z,24.60
2018-09-04T16:46:33.139Z,24.53
2018-09-04T16:49:02.018Z,24.45
2018-09-04T16:51:30.921Z,24.39
2018-09-04T16:53:59.779Z,24.31
2018-09-04T16:56:28.697Z,24.23
2018-09-04T16:58:57.647Z,24.19
2018-09-04T17:01:26.493Z,24.13
2018-09-04T17:03:55.413Z,24.08
2018-09-04T17:06:24.264Z,23.99
2018-09-04T17:08:53.153Z,23.98
2018-09-04T17:11:22.004Z,23.89
2018-09-04T17:13:50.877Z,23.84
2018-09-04T17:16:19.755Z,23.78
2018-09-04T17:18:48.639Z,23.75
2018-09-04T17:21:17.501Z,23.77
2018-09-04T17:23:46.369Z,23.72
2018-09-04T17:26:15.216Z,23.93
2018-09-04T17:28:44.053Z,23.77
2018-09-04T17:31:12.991Z,23.76
2018-09-04T17:33:41.853Z,23.71
2018-09-04T17:36:10.759Z,23.66
2018-09-04T17:38:39.676Z,23.62
2018-09-04T17:41:08.534Z,23.53
2018-09-04T17:43:37.407Z,23.45
2018-09-04T17:46:06.687Z,23.44
2018-09-04T17:48:35.630Z,23.41
2018-09-04T17:51:04.521Z,23.41
2018-09-04T17:53:33.433Z,23.40
2018-09-04T17:56:02.397Z,23.29
2018-09-04T17:58:31.258Z,23.19
2018-09-04T18:01:00.132Z,23.08
2018-09-04T18:03:29.021Z,22.99
2018-09-04T18:05:57.854Z,22.93
2018-09-04T18:08:26.744Z,22.86
2018-09-04T18:10:55.622Z,22.78
2018-09-04T18:13:24.461Z,22.76
2018-09-04T18:15:53.320Z,22.72
2018-09-04T18:18:22.151Z,22.61
2018-09-04T18:20:51.036Z,22.52
2018-09-04T18:23:19.915Z,22.40
2018-09-04T18:25:49.067Z,22.34
2018-09-04T18:28:17.929Z,22.26
2018-09-04T18:30:46.987Z,22.21
2018-09-04T18:33:15.826Z,22.15
2018-09-04T18:35:44.676Z,22.08
2018-09-04T18:38:13.550Z,22.00
2018-09-04T18:40:42.780Z,21.98
2018-09-04T18:43:11.823Z,21.94
2018-09-04T18:45:56.941Z,21.89
2018-09-04T18:48:26.424Z,21.81
2018-09-04T18:50:55.303Z,21.80
2018-09-04T18:53:24.159Z,21.77
2018-09-04T18:55:53.043Z,21.78
2018-09-04T18:58:21.980Z,21.71
2018-09-04T19:00:50.849Z,21.68
2018-09-04T19:03:19.736Z,21.61
2018-09-04T19:05:48.627Z,21.90
2018-09-04T19:08:17.536Z,21.69
2018-09-04T19:10:46.393Z,21.62
2018-09-04T19:13:15.245Z,21.56
2018-09-04T19:15:44.096Z,21.50
2018-09-04T19:18:13.107Z,21.43
2018-09-04T19:20:42.357Z,21.40
2018-09-04T19:23:11.759Z,21.35
2018-09-04T19:25:42.478Z,21.33
2018-09-04T19:28:11.377Z,21.23
2018-09-04T19:30:40.210Z,21.49
2018-09-04T19:33:09.118Z,21.25
2018-09-04T19:35:38.007Z,21.52
2018-09-04T19:38:06.878Z,21.23
2018-09-04T19:40:35.711Z,21.17
2018-09-04T19:43:04.548Z,21.17
2018-09-04T19:45:33.503Z,21.20
2018-09-04T19:48:02.341Z,21.46
2018-09-04T19:50:31.232Z,21.21
2018-09-04T19:53:00.137Z,21.13
2018-09-04T19:55:29.091Z,21.35
2018-09-04T19:57:57.886Z,21.12
2018-09-04T20:00:26.742Z,21.06
2018-09-04T20:02:55.661Z,20.96
2018-09-04T20:05:24.451Z,20.88
2018-09-04T20:07:53.285Z,20.89
2018-09-04T20:10:22.253Z,20.86
2018-09-04T20:12:51.143Z,20.85
2018-09-04T20:15:20.132Z,20.87
2018-09-04T20:17:49.183Z,20.85
2018-09-04T20:20:18.103Z,20.84
2018-09-04T20:22:47.041Z,20.79
2018-09-04T20:25:15.951Z,20.75
2018-09-04T20:27:44.896Z,20.72
2018-09-04T20:30:13.696Z,20.79
2018-09-04T20:32:42.572Z,20.83
2018-09-04T20:35:11.467Z,20.78
2018-09-04T20:37:40.328Z,20.76
2018-09-04T20:40:09.189Z,21.06
2018-09-04T20:42:38.049Z,20.80
2018-09-04T20:45:07.060Z,20.80
2018-09-04T20:47:35.904Z,21.12
2018-09-04T20:50:04.762Z,20.83
2018-09-04T20:52:33.605Z,20.77
2018-09-04T20:55:02.490Z,20.69
2018-09-04T20:57:34.423Z,20.68
2018-09-04T21:00:39.611Z,20.69
2018-09-04T21:03:44.784Z,20.64
2018-09-04T21:06:45.365Z,20.67
2018-09-04T21:10:00.937Z,20.67
2018-09-04T21:12:29.831Z,20.69
2018-09-04T21:14:58.728Z,20.73
2018-09-04T21:17:27.602Z,20.75
2018-09-04T21:19:56.476Z,20.72
2018-09-04T21:22:25.318Z,20.66
2018-09-04T21:24:54.209Z,20.64
2018-09-04T21:27:23.026Z,20.58
2018-09-04T21:29:51.868Z,20.56
2018-09-04T21:32:20.722Z,20.53
2018-09-04T21:34:49.542Z,20.51
2018-09-04T21:37:18.405Z,20.50
2018-09-04T21:39:47.263Z,20.46
2018-09-04T21:42:16.174Z,20.42
2018-09-04T21:44:44.989Z,20.40
2018-09-04T21:47:13.831Z,20.73
2018-09-04T21:49:42.704Z,20.50
2018-09-04T21:52:11.540Z,20.44
2018-09-04T21:54:40.409Z,20.42
2018-09-04T21:57:09.255Z,20.41
2018-09-04T21:59:38.110Z,20.40
2018-09-04T22:02:06.977Z,20.38
2018-09-04T22:04:35.843Z,20.39
2018-09-04T22:07:04.723Z,20.40
2018-09-04T22:09:37.164Z,20.39
2018-09-04T22:12:08.106Z,20.41
2018-09-04T22:14:36.954Z,20.39
2018-09-04T22:17:05.851Z,20.40
2018-09-04T22:19:34.685Z,20.39
2018-09-04T22:22:03.533Z,20.41
2018-09-04T22:24:34.705Z,20.41
2018-09-04T22:27:07.346Z,20.42
2018-09-04T22:29:37.690Z,20.42
2018-09-04T22:32:06.564Z,20.42
2018-09-04T22:34:35.373Z,20.41
2018-09-04T22:37:04.690Z,20.43
2018-09-04T22:39:33.532Z,20.41
2018-09-04T22:42:02.380Z,20.40
2018-09-04T22:44:31.224Z,20.39
2018-09-04T22:47:00.349Z,20.39
2018-09-04T22:49:29.200Z,20.40
2018-09-04T22:52:01.834Z,20.41
2018-09-04T22:54:30.691Z,20.42
2018-09-04T22:56:59.522Z,20.45
2018-09-04T22:59:28.474Z,20.47
2018-09-04T23:01:57.332Z,20.50
2018-09-04T23:04:26.220Z,20.55
2018-09-04T23:06:55.119Z,20.54
2018-09-04T23:09:23.928Z,20.56
2018-09-04T23:11:52.739Z,20.57
2018-09-04T23:14:21.615Z,20.59
2018-09-04T23:16:50.442Z,20.60
2018-09-04T23:19:19.262Z,20.67
2018-09-04T23:21:48.092Z,20.68
2018-09-04T23:24:16.975Z,20.70
2018-09-04T23:26:45.854Z,20.72
2018-09-04T23:29:14.708Z,20.73
2018-09-04T23:31:43.553Z,20.74
2018-09-04T23:34:12.395Z,20.74
2018-09-04T23:36:41.221Z,20.75
2018-09-04T23:39:10.120Z,21.11
2018-09-04T23:41:39.001Z,20.93
2018-09-04T23:44:07.954Z,20.93
2018-09-04T23:46:36.796Z,20.95
2018-09-04T23:49:06.548Z,20.96
2018-09-04T23:51:35.410Z,20.95
2018-09-04T23:54:04.257Z,20.95
2018-09-04T23:56:33.093Z,20.93
2018-09-04T23:59:01.959Z,20.94
